KDLN/DLN METAR and TAF weather

Enter ICAO airport designator
Station Type Date Time Source
KDLN METAR 2018/10/21 03:53 UTC NOAA

KDLN 210353Z AUTO 18009KT 10SM CLR 08/M02 A3018 RMK AO2 SLP210 T00831017


Station Type Date Time Source
KDLN Decoded METAR 2018/10/21 03:53 UTC NOAA

DILLON AIRPORT, MT, United States (KDLN) 45-15N 112-33W 1591M
Oct 20, 2018 - 11:53 PM EDT / 2018.10.21 0353 UTC
Wind: from the S (180 degrees) at 10 MPH (9 KT):0
Visibility: 10 mile(s):0
Sky conditions: clear
Temperature: 46.9 F (8.3 C)
Dew Point: 28.9 F (-1.7 C)
Relative Humidity: 49%
Pressure (altimeter): 30.18 in. Hg (1022 hPa)
ob: KDLN 210353Z AUTO 18009KT 10SM CLR 08/M02 A3018 RMK AO2 SLP210 T00831017
cycle: 4

Station Type Date Time Source
KDLN TAF UTC NOAA

Error!


Example: see airport list